createdAt,value
2023-03-12T00:00:26.363Z,5.67
2023-03-12T00:02:54.366Z,5.00
2023-03-12T00:05:22.569Z,6.70
2023-03-12T00:07:51.929Z,5.57
2023-03-12T00:10:20.477Z,4.73
2023-03-12T00:12:48.566Z,5.53
2023-03-12T00:15:16.617Z,5.80
2023-03-12T00:17:44.643Z,5.60
2023-03-12T00:20:13.769Z,4.87
2023-03-12T00:22:41.816Z,4.87
2023-03-12T00:25:15.381Z,5.83
2023-03-12T00:27:43.829Z,5.50
2023-03-12T00:30:13.359Z,4.90
2023-03-12T00:32:41.454Z,5.60
2023-03-12T00:35:09.994Z,8.30
2023-03-12T00:37:38.287Z,6.00
2023-03-12T00:40:10.941Z,6.20
2023-03-12T00:42:40.350Z,6.93
2023-03-12T00:45:09.350Z,5.83
2023-03-12T00:47:37.400Z,6.90
2023-03-12T00:50:06.149Z,7.03
2023-03-12T00:52:34.204Z,6.27
2023-03-12T00:55:02.208Z,6.00
2023-03-12T00:57:30.219Z,5.97
2023-03-12T00:59:59.560Z,6.20
2023-03-12T01:02:27.593Z,5.80
2023-03-12T01:04:55.631Z,5.53
2023-03-12T01:07:23.654Z,6.10
2023-03-12T01:09:51.681Z,8.27
2023-03-12T01:12:19.704Z,7.63
2023-03-12T01:14:47.723Z,7.80
2023-03-12T01:17:17.186Z,7.20
2023-03-12T01:19:45.200Z,6.87
2023-03-12T01:22:13.251Z,7.60
2023-03-12T01:24:41.466Z,6.87
2023-03-12T01:27:09.580Z,7.33
2023-03-12T01:29:37.594Z,7.10
2023-03-12T01:32:06.138Z,7.00
2023-03-12T01:34:35.595Z,7.17
2023-03-12T01:37:03.946Z,6.80
2023-03-12T01:39:31.937Z,8.17
2023-03-12T01:42:01.011Z,7.67
2023-03-12T01:44:29.286Z,6.23
2023-03-12T01:46:57.341Z,7.27
2023-03-12T01:49:28.378Z,7.70
2023-03-12T01:52:01.025Z,7.43
2023-03-12T01:54:33.798Z,8.43
2023-03-12T01:57:03.812Z,7.20
2023-03-12T01:59:34.819Z,7.87
2023-03-12T02:02:04.046Z,8.00
2023-03-12T02:04:33.970Z,7.10
2023-03-12T02:07:06.230Z,7.57
2023-03-12T02:09:36.095Z,6.50
2023-03-12T02:12:04.476Z,6.93
2023-03-12T02:14:33.058Z,6.93
2023-03-12T02:17:01.131Z,8.43
2023-03-12T02:19:36.792Z,7.27
2023-03-12T02:22:06.399Z,7.47
2023-03-12T02:24:39.693Z,7.77
2023-03-12T02:27:10.893Z,8.30
2023-03-12T02:29:41.762Z,7.47
2023-03-12T02:32:16.726Z,8.77
2023-03-12T02:34:44.789Z,7.77
2023-03-12T02:37:12.807Z,8.00
2023-03-12T02:39:42.326Z,10.23
2023-03-12T02:42:11.745Z,9.13
2023-03-12T02:44:39.913Z,9.03
2023-03-12T02:47:07.934Z,9.03
2023-03-12T02:49:36.401Z,10.50
2023-03-12T02:52:05.465Z,10.03
2023-03-12T02:54:33.639Z,11.40
2023-03-12T02:57:01.729Z,15.47
2023-03-12T02:59:31.166Z,12.57
2023-03-12T03:02:00.845Z,11.20
2023-03-12T03:04:31.340Z,11.23
2023-03-12T03:06:59.387Z,11.73
2023-03-12T03:09:27.702Z,10.10
2023-03-12T03:11:55.782Z,10.80
2023-03-12T03:14:24.318Z,10.70
2023-03-12T03:16:53.742Z,10.07
2023-03-12T03:19:21.772Z,11.80
2023-03-12T03:21:49.795Z,12.03
2023-03-12T03:24:17.919Z,10.50
2023-03-12T03:26:45.958Z,14.63
2023-03-12T03:29:14.001Z,10.47
2023-03-12T03:31:42.029Z,10.37
2023-03-12T03:34:12.540Z,9.57
2023-03-12T03:36:40.604Z,10.03
2023-03-12T03:39:08.611Z,9.73
2023-03-12T03:41:37.325Z,10.07
2023-03-12T03:44:07.759Z,9.17
2023-03-12T03:46:36.492Z,10.47
2023-03-12T03:49:04.831Z,10.53
2023-03-12T03:51:34.505Z,10.07
2023-03-12T03:54:02.532Z,10.33
2023-03-12T03:56:30.638Z,9.70
2023-03-12T03:58:59.414Z,9.20
2023-03-12T04:01:27.482Z,9.30
2023-03-12T04:03:55.518Z,9.90
2023-03-12T04:06:23.960Z,10.37
2023-03-12T04:08:53.576Z,10.10
2023-03-12T04:11:22.777Z,9.70
2023-03-12T04:13:51.753Z,9.87
2023-03-12T04:16:20.074Z,10.23
2023-03-12T04:18:48.098Z,10.77
2023-03-12T04:21:16.118Z,9.77
2023-03-12T04:23:44.113Z,9.93
2023-03-12T04:26:13.512Z,10.90
2023-03-12T04:28:42.544Z,10.63
2023-03-12T04:31:12.446Z,9.87
2023-03-12T04:33:41.630Z,12.77
2023-03-12T04:36:09.999Z,9.43
2023-03-12T04:38:38.111Z,10.67
2023-03-12T04:41:08.399Z,9.80
2023-03-12T04:43:37.800Z,10.53
2023-03-12T04:46:06.637Z,9.83
2023-03-12T04:48:35.329Z,10.73
2023-03-12T04:51:03.492Z,10.77
2023-03-12T04:53:31.647Z,11.53
2023-03-12T04:55:59.834Z,10.00
2023-03-12T04:58:28.286Z,10.40
2023-03-12T05:00:57.732Z,9.93
2023-03-12T05:03:25.867Z,10.63
2023-03-12T05:05:53.924Z,11.47
2023-03-12T05:08:21.974Z,9.13
2023-03-12T05:10:50.024Z,9.63
2023-03-12T05:13:19.510Z,10.30
2023-03-12T05:15:50.633Z,9.20
2023-03-12T05:18:21.545Z,9.73
2023-03-12T05:20:59.628Z,10.07
2023-03-12T05:23:27.696Z,10.27
2023-03-12T05:25:56.417Z,9.93
2023-03-12T05:28:28.366Z,10.30
2023-03-12T05:30:57.790Z,9.13
2023-03-12T05:33:28.296Z,10.00
2023-03-12T05:35:56.352Z,8.47
2023-03-12T05:38:24.679Z,9.67
2023-03-12T05:40:54.265Z,9.10
2023-03-12T05:43:22.467Z,9.73
2023-03-12T05:45:50.562Z,8.60
2023-03-12T05:48:19.016Z,8.00
2023-03-12T05:50:48.512Z,9.73
2023-03-12T05:53:16.736Z,8.93
2023-03-12T05:55:44.888Z,9.10
2023-03-12T05:58:12.963Z,8.77
2023-03-12T06:00:44.315Z,10.53
2023-03-12T06:03:13.200Z,8.97
2023-03-12T06:05:41.357Z,9.20
2023-03-12T06:08:10.754Z,9.20
2023-03-12T06:10:40.011Z,9.07
2023-03-12T06:13:08.776Z,8.40
2023-03-12T06:15:36.795Z,9.13
2023-03-12T06:18:04.927Z,9.83
2023-03-12T06:20:32.931Z,9.77
2023-03-12T06:23:00.920Z,9.43
2023-03-12T06:25:30.269Z,10.37
2023-03-12T06:27:58.334Z,9.70
2023-03-12T06:30:27.063Z,9.30
2023-03-12T06:32:55.490Z,9.23
2023-03-12T06:35:23.579Z,9.50
2023-03-12T06:37:51.624Z,10.70
2023-03-12T06:40:19.813Z,10.87
2023-03-12T06:42:49.189Z,9.53
2023-03-12T06:45:17.347Z,8.87
2023-03-12T06:47:45.491Z,9.57
2023-03-12T06:50:13.521Z,9.47
2023-03-12T06:52:41.841Z,9.00
2023-03-12T06:55:10.250Z,10.73
2023-03-12T06:57:38.278Z,9.17
2023-03-12T07:00:09.188Z,10.10
2023-03-12T07:02:37.275Z,8.60
2023-03-12T07:05:05.811Z,9.27
2023-03-12T07:07:33.832Z,9.80
2023-03-12T07:10:01.826Z,12.20
2023-03-12T07:12:29.986Z,9.70
2023-03-12T07:14:58.407Z,9.20
2023-03-12T07:17:27.843Z,9.33
2023-03-12T07:19:55.909Z,9.17
2023-03-12T07:22:23.959Z,10.37
2023-03-12T07:24:52.214Z,11.10
2023-03-12T07:27:20.484Z,9.97
2023-03-12T07:29:48.496Z,10.70
2023-03-12T07:32:16.805Z,10.93
2023-03-12T07:34:46.338Z,10.77
2023-03-12T07:37:14.369Z,11.03
2023-03-12T07:39:43.802Z,10.17
2023-03-12T07:42:12.752Z,10.73
2023-03-12T07:44:40.968Z,10.30
2023-03-12T07:47:22.768Z,11.30
2023-03-12T07:49:54.003Z,10.63
2023-03-12T07:52:22.272Z,11.70
2023-03-12T07:54:52.710Z,9.80
2023-03-12T07:57:21.019Z,11.13
2023-03-12T07:59:49.310Z,10.33
2023-03-12T08:02:17.692Z,9.27
2023-03-12T08:04:45.885Z,10.33
2023-03-12T08:07:15.608Z,9.83
2023-03-12T08:09:44.253Z,9.90
2023-03-12T08:12:12.701Z,9.10
2023-03-12T08:14:40.754Z,10.60
2023-03-12T08:17:08.770Z,9.27
2023-03-12T08:19:37.450Z,10.13
2023-03-12T08:22:05.485Z,11.17
2023-03-12T08:24:35.635Z,16.57
2023-03-12T08:27:03.750Z,13.60
2023-03-12T08:29:33.564Z,11.37
2023-03-12T08:32:05.400Z,10.13
2023-03-12T08:34:33.957Z,9.80
2023-03-12T08:37:02.874Z,13.83
2023-03-12T08:39:31.092Z,13.30
2023-03-12T08:42:00.945Z,18.30
2023-03-12T08:44:29.124Z,15.53
2023-03-12T08:46:57.143Z,10.57
2023-03-12T08:49:25.184Z,8.63
2023-03-12T08:51:53.285Z,8.07
2023-03-12T08:54:22.153Z,7.73
2023-03-12T08:56:52.240Z,7.63
2023-03-12T08:59:23.387Z,8.77
2023-03-12T09:01:51.754Z,6.87
2023-03-12T09:04:19.983Z,11.47
2023-03-12T09:06:48.074Z,6.33
2023-03-12T09:09:16.112Z,7.23
2023-03-12T09:11:44.126Z,8.00
2023-03-12T09:17:02.188Z,5.97
2023-03-12T09:19:30.729Z,7.87
2023-03-12T09:21:58.849Z,7.80
2023-03-12T09:24:27.048Z,6.40
2023-03-12T09:26:55.068Z,5.47
2023-03-12T09:29:23.481Z,8.60
2023-03-12T09:31:51.612Z,6.77
2023-03-12T09:34:21.019Z,5.20
2023-03-12T09:36:49.014Z,4.90
2023-03-12T09:39:17.095Z,7.83
2023-03-12T09:41:48.483Z,4.90
2023-03-12T09:44:27.675Z,5.10
2023-03-12T09:46:58.746Z,5.00
2023-03-12T09:49:35.271Z,5.83
2023-03-12T09:52:08.001Z,6.67
2023-03-12T09:54:42.194Z,4.87
2023-03-12T09:57:15.513Z,5.53
2023-03-12T09:59:43.530Z,6.63
2023-03-12T10:02:35.934Z,6.77
2023-03-12T10:05:10.932Z,6.00
2023-03-12T10:07:44.163Z,5.70
2023-03-12T10:10:25.705Z,7.40
2023-03-12T10:13:06.949Z,7.10
2023-03-12T10:15:45.380Z,5.67
2023-03-12T10:18:28.239Z,6.77
2023-03-12T10:21:14.079Z,6.60
2023-03-12T10:24:25.367Z,7.73
2023-03-12T10:26:56.665Z,7.77
2023-03-12T10:29:28.579Z,9.13
2023-03-12T10:31:59.178Z,6.10
2023-03-12T10:34:33.275Z,6.13
2023-03-12T10:37:13.610Z,5.90
2023-03-12T10:39:42.101Z,6.13
2023-03-12T10:42:17.114Z,4.80
2023-03-12T10:44:46.407Z,5.80
2023-03-12T10:47:28.193Z,6.40
2023-03-12T10:49:56.450Z,7.47
2023-03-12T10:52:25.805Z,5.43
2023-03-12T10:54:54.560Z,10.30
2023-03-12T10:57:22.778Z,6.23
2023-03-12T10:59:51.498Z,7.10
2023-03-12T11:02:35.696Z,5.10
2023-03-12T11:05:10.769Z,6.83
2023-03-12T11:07:45.351Z,4.90
2023-03-12T11:10:19.569Z,5.83
2023-03-12T11:13:00.304Z,6.23
2023-03-12T11:15:31.941Z,4.60
2023-03-12T11:18:26.607Z,5.43
2023-03-12T11:20:57.412Z,3.87
2023-03-12T11:23:29.946Z,4.10
2023-03-12T11:26:01.887Z,4.57
2023-03-12T11:28:37.152Z,6.20
2023-03-12T11:31:09.740Z,6.37
2023-03-12T11:33:38.003Z,5.13
2023-03-12T11:36:18.716Z,5.57
2023-03-12T11:38:53.855Z,4.27
2023-03-12T11:41:43.101Z,5.53
2023-03-12T11:44:24.101Z,5.33
2023-03-12T11:47:03.896Z,6.43
2023-03-12T11:49:56.984Z,5.20
2023-03-12T11:52:34.748Z,6.43
2023-03-12T11:55:38.429Z,4.47
2023-03-12T11:58:31.289Z,5.70
2023-03-12T12:01:07.216Z,4.73
2023-03-12T12:04:15.534Z,6.93
2023-03-12T12:06:57.880Z,4.70
2023-03-12T12:09:34.475Z,4.23
2023-03-12T12:12:22.282Z,5.30
2023-03-12T12:15:04.767Z,4.50
2023-03-12T12:17:45.235Z,4.83
2023-03-12T12:20:23.906Z,5.30
2023-03-12T12:23:06.944Z,6.83
2023-03-12T12:25:53.472Z,4.27
2023-03-12T12:28:59.214Z,3.87
2023-03-12T12:31:42.855Z,4.37
2023-03-12T12:34:49.017Z,4.70
2023-03-12T12:37:41.566Z,5.00
2023-03-12T12:40:19.435Z,4.50
2023-03-12T12:42:57.490Z,4.80
2023-03-12T12:45:29.025Z,4.80
2023-03-12T12:48:03.477Z,5.73
2023-03-12T12:50:34.947Z,5.60
2023-03-12T12:53:14.270Z,5.47
2023-03-12T12:55:50.500Z,5.23
2023-03-12T12:58:24.918Z,7.57
2023-03-12T13:00:56.669Z,5.30
2023-03-12T13:03:29.342Z,8.87
2023-03-12T13:05:59.947Z,4.17
2023-03-12T13:09:13.551Z,6.23
2023-03-12T13:11:44.442Z,4.67
2023-03-12T13:14:39.363Z,5.90
2023-03-12T13:17:10.265Z,4.10
2023-03-12T13:19:45.036Z,5.63
2023-03-12T13:22:27.855Z,6.47
2023-03-12T13:25:05.191Z,4.13
2023-03-12T13:27:38.946Z,5.43
2023-03-12T13:30:49.532Z,6.57
2023-03-12T13:33:21.715Z,6.27
2023-03-12T13:36:11.666Z,4.67
2023-03-12T13:38:52.947Z,3.93
2023-03-12T13:41:32.741Z,7.00
2023-03-12T13:44:00.805Z,5.90
2023-03-12T13:46:41.016Z,6.37
2023-03-12T13:49:20.415Z,4.50
2023-03-12T13:52:19.026Z,5.27
2023-03-12T13:54:49.619Z,5.33
2023-03-12T13:57:30.400Z,7.13
2023-03-12T14:00:00.070Z,6.53
2023-03-12T14:02:30.986Z,4.70
2023-03-12T14:05:05.198Z,5.03
2023-03-12T14:08:01.783Z,6.10
2023-03-12T14:10:37.756Z,6.40
2023-03-12T14:13:19.866Z,4.43
2023-03-12T14:15:56.235Z,7.10
2023-03-12T14:18:27.201Z,6.50
2023-03-12T14:20:59.111Z,6.80
2023-03-12T14:23:31.158Z,5.80
2023-03-12T14:26:04.038Z,5.80
2023-03-12T14:28:34.277Z,5.67
2023-03-12T14:31:05.971Z,5.87
2023-03-12T14:33:36.990Z,6.37
2023-03-12T14:36:10.612Z,5.07
2023-03-12T14:38:42.539Z,7.07
2023-03-12T14:41:14.723Z,5.73
2023-03-12T14:43:46.013Z,6.43
2023-03-12T14:46:19.035Z,5.73
2023-03-12T14:48:50.304Z,7.87
2023-03-12T14:51:24.386Z,6.13
2023-03-12T14:53:55.158Z,6.20
2023-03-12T14:56:30.100Z,6.00
2023-03-12T14:58:59.491Z,6.03
2023-03-12T15:01:30.561Z,6.13
2023-03-12T15:04:02.048Z,7.80
2023-03-12T15:06:32.575Z,6.03
2023-03-12T15:09:04.913Z,5.67
2023-03-12T15:11:35.242Z,5.53
2023-03-12T15:14:06.880Z,5.30
2023-03-12T15:16:36.155Z,6.00
2023-03-12T15:19:04.678Z,6.80
2023-03-12T15:21:34.011Z,6.07
2023-03-12T15:24:04.865Z,6.53
2023-03-12T15:26:36.455Z,7.03
2023-03-12T15:29:16.291Z,5.93
2023-03-12T15:31:46.351Z,5.77
2023-03-12T15:34:16.479Z,8.33
2023-03-12T15:36:49.396Z,6.20
2023-03-12T15:39:27.038Z,5.83
2023-03-12T15:41:56.208Z,6.47
2023-03-12T15:44:26.031Z,6.87
2023-03-12T15:46:57.867Z,6.93
2023-03-12T15:49:28.624Z,6.27
2023-03-12T15:52:03.160Z,6.60
2023-03-12T15:54:32.930Z,6.57
2023-03-12T15:57:21.342Z,6.50
2023-03-12T16:00:09.926Z,7.10
2023-03-12T16:02:39.594Z,6.70
2023-03-12T16:05:08.249Z,6.87
2023-03-12T16:07:36.258Z,6.57
2023-03-12T16:10:06.454Z,6.30
2023-03-12T16:12:34.945Z,6.87
2023-03-12T16:15:03.012Z,6.87
2023-03-12T16:17:31.061Z,6.87
2023-03-12T16:19:59.073Z,6.80
2023-03-12T16:22:27.069Z,7.17
2023-03-12T16:24:55.068Z,7.07
2023-03-12T16:27:32.533Z,7.10
2023-03-12T16:30:01.093Z,6.90
2023-03-12T16:32:29.630Z,7.30
2023-03-12T16:34:57.902Z,9.07
2023-03-12T16:37:26.648Z,7.47
2023-03-12T16:39:54.737Z,7.70
2023-03-12T16:42:24.232Z,7.90
2023-03-12T16:44:52.348Z,7.47
2023-03-12T16:47:20.405Z,6.83
2023-03-12T16:49:48.410Z,7.13
2023-03-12T16:52:19.013Z,7.87
2023-03-12T16:54:49.069Z,7.27
2023-03-12T16:57:23.396Z,7.73
2023-03-12T16:59:53.368Z,8.73
2023-03-12T17:02:22.162Z,7.57
2023-03-12T17:04:51.097Z,8.40
2023-03-12T17:07:19.425Z,7.93
2023-03-12T17:09:47.425Z,7.97
2023-03-12T17:12:23.003Z,8.43
2023-03-12T17:14:52.748Z,8.07
2023-03-12T17:17:23.127Z,7.73
2023-03-12T17:19:52.002Z,8.10
2023-03-12T17:22:20.820Z,8.10
2023-03-12T17:24:48.958Z,8.63
2023-03-12T17:27:17.047Z,8.87
2023-03-12T17:29:45.096Z,9.00
2023-03-12T17:32:14.445Z,8.73
2023-03-12T17:34:42.528Z,8.83
2023-03-12T17:37:10.689Z,9.93
2023-03-12T17:39:38.680Z,10.07
2023-03-12T17:42:06.788Z,11.07
2023-03-12T17:44:36.677Z,11.07
2023-03-12T17:47:04.846Z,11.07
2023-03-12T17:49:34.258Z,11.80
2023-03-12T17:52:03.799Z,11.30
2023-03-12T17:54:31.824Z,12.00
2023-03-12T17:56:59.843Z,13.03
2023-03-12T17:59:27.934Z,13.43
2023-03-12T18:01:55.957Z,13.07
2023-03-12T18:04:24.309Z,13.30
2023-03-12T18:06:53.890Z,13.87
2023-03-12T18:09:22.171Z,14.87
2023-03-12T18:11:50.158Z,14.30
2023-03-12T18:14:18.559Z,13.60
2023-03-12T18:16:47.170Z,14.73
2023-03-12T18:19:16.026Z,15.67
2023-03-12T18:21:44.022Z,16.17
2023-03-12T18:24:14.691Z,16.23
2023-03-12T18:26:43.095Z,16.87
2023-03-12T18:29:11.159Z,17.80
2023-03-12T18:31:39.286Z,18.73
2023-03-12T18:34:07.344Z,18.67
2023-03-12T18:36:35.367Z,19.30
2023-03-12T18:39:04.569Z,19.73
2023-03-12T18:41:34.148Z,21.70
2023-03-12T18:44:02.185Z,23.50
2023-03-12T18:46:30.266Z,26.97
2023-03-12T18:48:58.310Z,26.87
2023-03-12T18:51:26.281Z,27.93
2023-03-12T18:53:54.313Z,26.13
2023-03-12T18:56:22.390Z,28.50
2023-03-12T18:58:51.801Z,26.07
2023-03-12T19:01:19.822Z,30.50
2023-03-12T19:03:47.912Z,31.83
2023-03-12T19:06:17.629Z,28.17
2023-03-12T19:08:45.693Z,31.37
2023-03-12T19:11:15.727Z,33.10
2023-03-12T19:13:44.288Z,36.57
2023-03-12T19:16:17.642Z,34.37
2023-03-12T19:18:45.726Z,35.23
2023-03-12T19:21:13.745Z,38.73
2023-03-12T19:23:41.795Z,34.57
2023-03-12T19:26:09.826Z,38.13
2023-03-12T19:28:39.061Z,38.77
2023-03-12T19:31:09.434Z,37.27
2023-03-12T19:33:39.193Z,36.77
2023-03-12T19:36:08.223Z,40.90
2023-03-12T19:38:36.296Z,46.10
2023-03-12T19:41:04.676Z,45.00
2023-03-12T19:43:32.658Z,48.20
2023-03-12T19:46:00.783Z,44.67
2023-03-12T19:48:28.809Z,47.07
2023-03-12T19:50:58.467Z,51.50
2023-03-12T19:53:26.537Z,46.23
2023-03-12T19:55:55.074Z,43.57
2023-03-12T19:58:23.094Z,48.83
2023-03-12T20:00:51.102Z,44.43
2023-03-12T20:03:20.696Z,45.20
2023-03-12T20:05:50.501Z,53.37
2023-03-12T20:08:20.923Z,53.67
2023-03-12T20:10:49.671Z,46.80
2023-03-12T20:13:18.636Z,52.80
2023-03-12T20:15:46.857Z,48.67
2023-03-12T20:18:15.209Z,52.40
2023-03-12T20:20:43.931Z,49.07
2023-03-12T20:23:11.921Z,56.00
2023-03-12T20:25:42.178Z,52.97
2023-03-12T20:28:11.369Z,49.57
2023-03-12T20:30:40.577Z,44.40
2023-03-12T20:33:09.668Z,49.27
2023-03-12T20:35:38.129Z,52.07
2023-03-12T20:38:06.168Z,49.20
2023-03-12T20:40:34.168Z,54.43
2023-03-12T20:43:04.933Z,48.47
2023-03-12T20:45:34.017Z,45.37
2023-03-12T20:48:02.365Z,48.33
2023-03-12T20:50:31.076Z,46.53
2023-03-12T20:52:59.665Z,43.47
2023-03-12T20:55:27.722Z,45.03
2023-03-12T20:57:55.716Z,50.63
2023-03-12T21:00:25.340Z,46.57
2023-03-12T21:02:53.382Z,41.03
2023-03-12T21:05:23.837Z,45.33
2023-03-12T21:07:53.936Z,44.10
2023-03-12T21:10:22.101Z,51.87
2023-03-12T21:12:50.137Z,51.97
2023-03-12T21:15:18.238Z,46.70
2023-03-12T21:17:47.610Z,49.07
2023-03-12T21:20:17.825Z,47.53
2023-03-12T21:22:46.886Z,46.00
2023-03-12T21:25:14.919Z,52.33
2023-03-12T21:27:50.430Z,40.40
2023-03-12T21:30:20.020Z,37.07
2023-03-12T21:32:49.418Z,44.87
2023-03-12T21:35:17.733Z,36.33
2023-03-12T21:37:45.774Z,42.57
2023-03-12T21:40:14.994Z,41.33
2023-03-12T21:42:43.058Z,43.87
2023-03-12T21:45:12.188Z,38.93
2023-03-12T21:47:41.165Z,36.47
2023-03-12T21:50:12.157Z,41.20
2023-03-12T21:52:43.289Z,38.57
2023-03-12T21:55:12.111Z,35.67
2023-03-12T21:57:40.222Z,37.67
2023-03-12T22:00:12.809Z,34.17
2023-03-12T22:02:41.426Z,33.13
2023-03-12T22:05:11.820Z,32.57
2023-03-12T22:07:40.259Z,28.37
2023-03-12T22:10:11.861Z,31.80
2023-03-12T22:12:40.384Z,32.60
2023-03-12T22:15:09.718Z,30.40
2023-03-12T22:17:37.722Z,34.00
2023-03-12T22:20:07.931Z,35.93
2023-03-12T22:22:37.304Z,27.23
2023-03-12T22:25:05.915Z,38.27
2023-03-12T22:27:33.920Z,33.47
2023-03-12T22:30:01.922Z,32.93
2023-03-12T22:32:30.021Z,38.67
2023-03-12T22:34:58.056Z,30.63
2023-03-12T22:37:26.047Z,31.83
2023-03-12T22:39:58.259Z,32.57
2023-03-12T22:42:26.283Z,33.90
2023-03-12T22:44:54.349Z,35.13
2023-03-12T22:47:23.336Z,32.47
2023-03-12T22:49:52.802Z,29.33
2023-03-12T22:52:20.803Z,34.73
2023-03-12T22:54:48.841Z,30.40
2023-03-12T22:57:18.217Z,30.93
2023-03-12T22:59:48.079Z,30.80
2023-03-12T23:02:16.180Z,32.77
2023-03-12T23:04:44.355Z,32.63
2023-03-12T23:07:16.020Z,30.53
2023-03-12T23:09:45.956Z,34.93
2023-03-12T23:12:14.005Z,41.73
2023-03-12T23:14:43.390Z,42.53
2023-03-12T23:17:11.477Z,29.87
2023-03-12T23:19:39.499Z,38.20
2023-03-12T23:22:08.457Z,38.13
2023-03-12T23:24:36.452Z,36.00
2023-03-12T23:27:04.723Z,37.80
2023-03-12T23:29:32.840Z,33.33
2023-03-12T23:32:02.427Z,42.20
2023-03-12T23:34:30.524Z,34.20
2023-03-12T23:36:58.707Z,41.07
2023-03-12T23:39:26.793Z,36.33
2023-03-12T23:41:56.309Z,35.63
2023-03-12T23:44:24.839Z,36.30
2023-03-12T23:46:52.891Z,27.60
2023-03-12T23:49:22.290Z,39.97
2023-03-12T23:51:50.312Z,36.03
2023-03-12T23:54:18.329Z,29.00
2023-03-12T23:56:46.339Z,31.40
2023-03-12T23:59:14.380Z,32.43
